sensor_id;sensor_type;location;lat;lon;timestamp;pressure;altitude;pressure_sealevel;temperature;humidity
55347;BME280;41218;55.700;38.270;2023-02-13T00:00:22;100117.69;;;-9.53;68.60
55347;BME280;41218;55.700;38.270;2023-02-13T00:05:23;100110.38;;;-9.58;68.75
55347;BME280;41218;55.700;38.270;2023-02-13T00:10:24;100089.66;;;-9.62;68.54
55347;BME280;41218;55.700;38.270;2023-02-13T00:15:24;100089.06;;;-9.64;68.45
55347;BME280;41218;55.700;38.270;2023-02-13T00:20:25;100078.81;;;-9.68;68.68
55347;BME280;41218;55.700;38.270;2023-02-13T00:25:26;100072.44;;;-9.67;68.35
55347;BME280;41218;55.700;38.270;2023-02-13T00:30:26;100036.06;;;-9.86;68.80
55347;BME280;41218;55.700;38.270;2023-02-13T00:35:27;100045.16;;;-9.75;68.37
55347;BME280;41218;55.700;38.270;2023-02-13T00:40:27;100051.25;;;-9.68;68.92
55347;BME280;41218;55.700;38.270;2023-02-13T00:45:28;100015.16;;;-9.77;68.46
55347;BME280;41218;55.700;38.270;2023-02-13T00:50:28;100023.69;;;-9.69;69.18
55347;BME280;41218;55.700;38.270;2023-02-13T00:55:29;100028.78;;;-9.67;68.53
55347;BME280;41218;55.700;38.270;2023-02-13T01:00:30;100006.69;;;-9.74;68.62
55347;BME280;41218;55.700;38.270;2023-02-13T01:05:31;100020.66;;;-9.72;68.88
55347;BME280;41218;55.700;38.270;2023-02-13T01:10:32;100006.69;;;-9.74;68.77
55347;BME280;41218;55.700;38.270;2023-02-13T01:15:32;99990.63;;;-9.74;68.80
55347;BME280;41218;55.700;38.270;2023-02-13T01:20:33;99984.59;;;-9.70;68.63
55347;BME280;41218;55.700;38.270;2023-02-13T01:25:33;99997.25;;;-9.65;68.72
55347;BME280;41218;55.700;38.270;2023-02-13T01:30:34;99985.16;;;-9.68;68.43
55347;BME280;41218;55.700;38.270;2023-02-13T01:35:38;99980.63;;;-9.67;68.46
55347;BME280;41218;55.700;38.270;2023-02-13T01:40:47;99965.50;;;-9.61;68.73
55347;BME280;41218;55.700;38.270;2023-02-13T01:45:49;99955.88;;;-9.62;68.02
55347;BME280;41218;55.700;38.270;2023-02-13T01:51:03;99946.69;;;-9.55;68.60
55347;BME280;41218;55.700;38.270;2023-02-13T02:01:10;99918.28;;;-9.56;67.93
55347;BME280;41218;55.700;38.270;2023-02-13T02:06:20;99920.25;;;-9.51;68.21
55347;BME280;41218;55.700;38.270;2023-02-13T02:11:36;99916.66;;;-9.45;68.05
55347;BME280;41218;55.700;38.270;2023-02-13T02:16:40;99918.38;;;-9.39;68.32
55347;BME280;41218;55.700;38.270;2023-02-13T02:28:38;99907.56;;;-9.32;68.21
55347;BME280;41218;55.700;38.270;2023-02-13T02:43:57;99859.47;;;-9.27;68.00
55347;BME280;41218;55.700;38.270;2023-02-13T02:49:05;99867.97;;;-9.18;68.09
55347;BME280;41218;55.700;38.270;2023-02-13T02:54:36;99854.91;;;-9.15;67.88
55347;BME280;41218;55.700;38.270;2023-02-13T02:59:58;99842.44;;;-9.09;67.94
55347;BME280;41218;55.700;38.270;2023-02-13T03:05:26;99835.09;;;-9.02;67.62
55347;BME280;41218;55.700;38.270;2023-02-13T03:10:47;99827.94;;;-8.96;67.91
55347;BME280;41218;55.700;38.270;2023-02-13T03:16:11;99823.16;;;-8.94;68.00
55347;BME280;41218;55.700;38.270;2023-02-13T03:27:30;99811.75;;;-8.90;68.05
55347;BME280;41218;55.700;38.270;2023-02-13T03:33:00;99821.22;;;-8.82;67.96
55347;BME280;41218;55.700;38.270;2023-02-13T03:38:21;99805.50;;;-8.78;67.64
55347;BME280;41218;55.700;38.270;2023-02-13T03:43:26;99794.06;;;-8.74;67.71
55347;BME280;41218;55.700;38.270;2023-02-13T03:48:33;99782.06;;;-8.71;67.59
55347;BME280;41218;55.700;38.270;2023-02-13T03:53:56;99789.47;;;-8.61;67.92
55347;BME280;41218;55.700;38.270;2023-02-13T03:59:00;99767.91;;;-8.67;68.22
55347;BME280;41218;55.700;38.270;2023-02-13T04:09:32;99792.38;;;-8.46;67.91
55347;BME280;41218;55.700;38.270;2023-02-13T04:14:39;99785.47;;;-8.42;67.99
55347;BME280;41218;55.700;38.270;2023-02-13T04:19:43;99765.66;;;-8.41;67.85
55347;BME280;41218;55.700;38.270;2023-02-13T04:24:44;99768.22;;;-8.29;68.46
55347;BME280;41218;55.700;38.270;2023-02-13T04:29:44;99757.81;;;-8.26;68.00
55347;BME280;41218;55.700;38.270;2023-02-13T04:34:45;99753.56;;;-8.21;68.39
55347;BME280;41218;55.700;38.270;2023-02-13T04:39:45;99726.28;;;-8.18;68.28
55347;BME280;41218;55.700;38.270;2023-02-13T04:44:45;99707.00;;;-8.15;68.02
55347;BME280;41218;55.700;38.270;2023-02-13T04:49:46;99716.16;;;-8.11;68.09
55347;BME280;41218;55.700;38.270;2023-02-13T04:54:46;99720.53;;;-8.05;67.79
55347;BME280;41218;55.700;38.270;2023-02-13T04:59:47;99709.09;;;-8.00;68.10
55347;BME280;41218;55.700;38.270;2023-02-13T05:04:47;99707.25;;;-7.95;68.58
55347;BME280;41218;55.700;38.270;2023-02-13T05:09:48;99695.81;;;-7.90;68.63
55347;BME280;41218;55.700;38.270;2023-02-13T05:14:48;99674.13;;;-7.83;68.48
55347;BME280;41218;55.700;38.270;2023-02-13T05:19:49;99668.28;;;-7.80;68.41
55347;BME280;41218;55.700;38.270;2023-02-13T05:24:49;99668.88;;;-7.73;68.47
55347;BME280;41218;55.700;38.270;2023-02-13T05:29:49;99652.66;;;-7.61;68.50
55347;BME280;41218;55.700;38.270;2023-02-13T05:34:50;99637.97;;;-7.54;68.70
55347;BME280;41218;55.700;38.270;2023-02-13T05:39:50;99650.41;;;-7.42;68.60
55347;BME280;41218;55.700;38.270;2023-02-13T05:44:51;99658.88;;;-7.29;69.40
55347;BME280;41218;55.700;38.270;2023-02-13T05:49:51;99654.38;;;-7.23;69.24
55347;BME280;41218;55.700;38.270;2023-02-13T05:54:52;99651.25;;;-7.10;69.16
55347;BME280;41218;55.700;38.270;2023-02-13T05:59:52;99636.03;;;-6.99;69.01
55347;BME280;41218;55.700;38.270;2023-02-13T06:04:53;99634.22;;;-6.93;69.06
55347;BME280;41218;55.700;38.270;2023-02-13T06:09:53;99634.84;;;-6.81;69.28
55347;BME280;41218;55.700;38.270;2023-02-13T06:14:53;99636.75;;;-6.71;69.32
55347;BME280;41218;55.700;38.270;2023-02-13T06:19:54;99638.97;;;-6.63;69.56
55347;BME280;41218;55.700;38.270;2023-02-13T06:24:54;99631.25;;;-6.54;69.44
55347;BME280;41218;55.700;38.270;2023-02-13T06:29:55;99631.06;;;-6.42;69.17
55347;BME280;41218;55.700;38.270;2023-02-13T06:34:55;99615.78;;;-6.32;69.86
55347;BME280;41218;55.700;38.270;2023-02-13T06:39:56;99616.63;;;-6.21;69.90
55347;BME280;41218;55.700;38.270;2023-02-13T06:44:56;99619.34;;;-6.11;69.86
55347;BME280;41218;55.700;38.270;2023-02-13T06:49:57;99598.13;;;-6.02;70.03
55347;BME280;41218;55.700;38.270;2023-02-13T06:54:57;99605.41;;;-5.87;69.71
55347;BME280;41218;55.700;38.270;2023-02-13T06:59:59;99596.81;;;-5.79;69.87
55347;BME280;41218;55.700;38.270;2023-02-13T07:04:59;99584.44;;;-5.70;70.21
55347;BME280;41218;55.700;38.270;2023-02-13T07:10:00;99583.41;;;-5.58;70.43
55347;BME280;41218;55.700;38.270;2023-02-13T07:15:04;99575.88;;;-5.46;70.49
55347;BME280;41218;55.700;38.270;2023-02-13T07:20:05;99570.75;;;-5.32;70.54
55347;BME280;41218;55.700;38.270;2023-02-13T07:25:06;99568.88;;;-5.16;70.92
55347;BME280;41218;55.700;38.270;2023-02-13T07:30:07;99553.75;;;-5.07;69.96
55347;BME280;41218;55.700;38.270;2023-02-13T07:35:07;99550.81;;;-5.00;70.03
55347;BME280;41218;55.700;38.270;2023-02-13T07:40:08;99544.34;;;-4.94;70.27
55347;BME280;41218;55.700;38.270;2023-02-13T07:45:09;99528.94;;;-4.84;70.02
55347;BME280;41218;55.700;38.270;2023-02-13T07:50:11;99532.66;;;-4.69;70.59
55347;BME280;41218;55.700;38.270;2023-02-13T07:55:12;99522.66;;;-4.58;70.50
55347;BME280;41218;55.700;38.270;2023-02-13T08:00:13;99504.03;;;-4.55;70.79
55347;BME280;41218;55.700;38.270;2023-02-13T08:05:13;99511.25;;;-4.40;70.59
55347;BME280;41218;55.700;38.270;2023-02-13T08:10:14;99510.94;;;-4.28;70.86
55347;BME280;41218;55.700;38.270;2023-02-13T08:15:33;99485.25;;;-4.20;70.31
55347;BME280;41218;55.700;38.270;2023-02-13T08:20:34;99506.78;;;-4.05;70.46
55347;BME280;41218;55.700;38.270;2023-02-13T08:25:36;99494.84;;;-3.99;70.44
55347;BME280;41218;55.700;38.270;2023-02-13T08:30:37;99489.41;;;-3.94;70.98
55347;BME280;41218;55.700;38.270;2023-02-13T08:35:38;99471.03;;;-3.92;71.41
55347;BME280;41218;55.700;38.270;2023-02-13T08:40:38;99459.88;;;-3.80;70.98
55347;BME280;41218;55.700;38.270;2023-02-13T08:45:39;99453.34;;;-3.74;70.42
55347;BME280;41218;55.700;38.270;2023-02-13T08:50:39;99432.53;;;-3.68;71.10
55347;BME280;41218;55.700;38.270;2023-02-13T08:55:40;99425.34;;;-3.49;71.19
55347;BME280;41218;55.700;38.270;2023-02-13T09:00:40;99432.75;;;-3.35;71.04
55347;BME280;41218;55.700;38.270;2023-02-13T09:05:41;99424.03;;;-3.27;70.72
55347;BME280;41218;55.700;38.270;2023-02-13T09:10:42;99419.63;;;-3.18;70.79
55347;BME280;41218;55.700;38.270;2023-02-13T09:15:45;99419.50;;;-3.08;70.16
55347;BME280;41218;55.700;38.270;2023-02-13T09:20:45;99417.47;;;-2.97;70.16
55347;BME280;41218;55.700;38.270;2023-02-13T09:25:46;99414.41;;;-2.90;70.53
55347;BME280;41218;55.700;38.270;2023-02-13T09:30:46;99401.59;;;-2.79;70.39
55347;BME280;41218;55.700;38.270;2023-02-13T09:35:48;99398.16;;;-2.66;70.42
55347;BME280;41218;55.700;38.270;2023-02-13T09:40:54;99380.34;;;-2.67;70.58
55347;BME280;41218;55.700;38.270;2023-02-13T09:46:22;99375.34;;;-2.60;70.43
55347;BME280;41218;55.700;38.270;2023-02-13T09:51:22;99375.44;;;-2.46;70.20
55347;BME280;41218;55.700;38.270;2023-02-13T09:56:45;99378.22;;;-2.32;70.65
55347;BME280;41218;55.700;38.270;2023-02-13T10:01:51;99353.09;;;-2.19;70.49
55347;BME280;41218;55.700;38.270;2023-02-13T10:12:11;99327.91;;;-2.00;70.70
55347;BME280;41218;55.700;38.270;2023-02-13T10:17:33;99327.72;;;-1.90;70.95
55347;BME280;41218;55.700;38.270;2023-02-13T10:22:36;99317.50;;;-1.79;70.65
55347;BME280;41218;55.700;38.270;2023-02-13T10:27:39;99314.41;;;-1.73;70.66
55347;BME280;41218;55.700;38.270;2023-02-13T10:33:10;99311.63;;;-1.68;70.55
55347;BME280;41218;55.700;38.270;2023-02-13T10:38:20;99299.28;;;-1.60;70.77
55347;BME280;41218;55.700;38.270;2023-02-13T10:43:26;99303.50;;;-1.54;70.49
55347;BME280;41218;55.700;38.270;2023-02-13T10:53:50;99305.31;;;-1.35;70.47
55347;BME280;41218;55.700;38.270;2023-02-13T10:59:57;99287.34;;;-1.31;70.29
55347;BME280;41218;55.700;38.270;2023-02-13T11:04:26;99263.53;;;-1.34;70.45
55347;BME280;41218;55.700;38.270;2023-02-13T11:09:32;99256.69;;;-1.32;70.37
55347;BME280;41218;55.700;38.270;2023-02-13T11:14:37;99256.91;;;-1.28;70.50
55347;BME280;41218;55.700;38.270;2023-02-13T11:19:46;99250.38;;;-1.27;70.49
55347;BME280;41218;55.700;38.270;2023-02-13T11:24:59;99242.75;;;-1.25;70.74
55347;BME280;41218;55.700;38.270;2023-02-13T11:30:10;99249.38;;;-1.17;70.30
55347;BME280;41218;55.700;38.270;2023-02-13T11:35:30;99240.41;;;-1.18;70.66
55347;BME280;41218;55.700;38.270;2023-02-13T11:40:31;99237.53;;;-1.22;70.58
55347;BME280;41218;55.700;38.270;2023-02-13T11:45:32;99222.84;;;-1.21;70.74
55347;BME280;41218;55.700;38.270;2023-02-13T11:50:33;99225.75;;;-1.17;70.92
55347;BME280;41218;55.700;38.270;2023-02-13T11:55:37;99217.00;;;-1.14;71.08
55347;BME280;41218;55.700;38.270;2023-02-13T12:00:40;99209.06;;;-1.10;70.99
55347;BME280;41218;55.700;38.270;2023-02-13T12:05:40;99206.84;;;-1.08;71.21
55347;BME280;41218;55.700;38.270;2023-02-13T12:10:41;99195.06;;;-1.04;70.92
55347;BME280;41218;55.700;38.270;2023-02-13T12:15:43;99187.41;;;-1.02;71.00
55347;BME280;41218;55.700;38.270;2023-02-13T12:26:25;99168.31;;;-0.96;70.93
55347;BME280;41218;55.700;38.270;2023-02-13T12:47:21;99160.63;;;-0.81;71.29
55347;BME280;41218;55.700;38.270;2023-02-13T12:57:49;99151.56;;;-0.76;70.93
55347;BME280;41218;55.700;38.270;2023-02-13T13:19:15;99119.28;;;-0.77;71.45
55347;BME280;41218;55.700;38.270;2023-02-13T13:29:45;99127.91;;;-0.75;71.23
55347;BME280;41218;55.700;38.270;2023-02-13T13:34:49;99123.63;;;-0.76;71.60
55347;BME280;41218;55.700;38.270;2023-02-13T13:45:36;99128.41;;;-0.73;71.99
55347;BME280;41218;55.700;38.270;2023-02-13T13:50:39;99115.28;;;-0.80;72.09
55347;BME280;41218;55.700;38.270;2023-02-13T14:06:20;99097.59;;;-0.77;72.09
55347;BME280;41218;55.700;38.270;2023-02-13T14:11:40;99096.00;;;-0.78;72.36
55347;BME280;41218;55.700;38.270;2023-02-13T14:16:43;99098.22;;;-0.81;72.12
55347;BME280;41218;55.700;38.270;2023-02-13T14:21:44;99079.16;;;-0.89;72.10
55347;BME280;41218;55.700;38.270;2023-02-13T14:26:57;99076.13;;;-0.88;72.62
55347;BME280;41218;55.700;38.270;2023-02-13T14:32:12;99062.56;;;-0.88;72.55
55347;BME280;41218;55.700;38.270;2023-02-13T14:37:20;99056.34;;;-0.88;72.37
55347;BME280;41218;55.700;38.270;2023-02-13T14:42:29;99053.34;;;-0.87;72.41
55347;BME280;41218;55.700;38.270;2023-02-13T14:47:42;99052.53;;;-0.87;72.84
55347;BME280;41218;55.700;38.270;2023-02-13T14:52:45;99040.88;;;-0.88;72.35
55347;BME280;41218;55.700;38.270;2023-02-13T14:57:52;99023.41;;;-0.95;72.69
55347;BME280;41218;55.700;38.270;2023-02-13T15:08:33;99010.34;;;-0.93;72.67
55347;BME280;41218;55.700;38.270;2023-02-13T15:13:35;98988.97;;;-0.95;73.13
55347;BME280;41218;55.700;38.270;2023-02-13T15:18:50;98977.78;;;-0.93;73.13
55347;BME280;41218;55.700;38.270;2023-02-13T15:23:53;98971.16;;;-0.87;73.36
55347;BME280;41218;55.700;38.270;2023-02-13T15:34:01;98944.31;;;-0.89;73.46
55347;BME280;41218;55.700;38.270;2023-02-13T15:39:03;98935.22;;;-0.84;73.19
55347;BME280;41218;55.700;38.270;2023-02-13T15:44:18;98934.94;;;-0.83;73.60
55347;BME280;41218;55.700;38.270;2023-02-13T15:49:23;98936.50;;;-0.82;73.52
55347;BME280;41218;55.700;38.270;2023-02-13T15:54:29;98916.88;;;-0.87;73.46
55347;BME280;41218;55.700;38.270;2023-02-13T15:59:33;98910.34;;;-0.77;73.81
55347;BME280;41218;55.700;38.270;2023-02-13T16:04:34;98900.16;;;-0.72;73.77
55347;BME280;41218;55.700;38.270;2023-02-13T16:09:35;98898.56;;;-0.73;73.98
55347;BME280;41218;55.700;38.270;2023-02-13T16:14:54;98899.06;;;-0.62;73.96
55347;BME280;41218;55.700;38.270;2023-02-13T16:35:35;98865.88;;;-0.50;74.52
55347;BME280;41218;55.700;38.270;2023-02-13T16:40:40;98850.69;;;-0.51;74.39
55347;BME280;41218;55.700;38.270;2023-02-13T16:45:42;98835.19;;;-0.51;74.28
55347;BME280;41218;55.700;38.270;2023-02-13T16:50:42;98837.44;;;-0.44;74.54
55347;BME280;41218;55.700;38.270;2023-02-13T16:55:43;98824.34;;;-0.42;74.03
55347;BME280;41218;55.700;38.270;2023-02-13T17:00:49;98808.69;;;-0.45;74.61
55347;BME280;41218;55.700;38.270;2023-02-13T17:05:50;98803.75;;;-0.43;74.44
55347;BME280;41218;55.700;38.270;2023-02-13T17:11:05;98802.16;;;-0.35;75.00
55347;BME280;41218;55.700;38.270;2023-02-13T17:16:07;98796.41;;;-0.34;74.59
55347;BME280;41218;55.700;38.270;2023-02-13T17:21:09;98780.44;;;-0.35;74.44
55347;BME280;41218;55.700;38.270;2023-02-13T17:26:09;98780.75;;;-0.28;74.41
55347;BME280;41218;55.700;38.270;2023-02-13T17:31:10;98776.09;;;-0.28;74.46
55347;BME280;41218;55.700;38.270;2023-02-13T17:36:11;98759.31;;;-0.21;74.75
55347;BME280;41218;55.700;38.270;2023-02-13T17:41:14;98755.81;;;-0.22;74.46
55347;BME280;41218;55.700;38.270;2023-02-13T17:46:15;98739.03;;;-0.24;74.52
55347;BME280;41218;55.700;38.270;2023-02-13T17:51:16;98727.03;;;-0.23;74.64
55347;BME280;41218;55.700;38.270;2023-02-13T17:56:17;98724.97;;;-0.17;74.87
55347;BME280;41218;55.700;38.270;2023-02-13T18:01:17;98711.38;;;-0.17;74.79
55347;BME280;41218;55.700;38.270;2023-02-13T18:06:18;98697.47;;;-0.15;74.91
55347;BME280;41218;55.700;38.270;2023-02-13T18:11:18;98687.09;;;-0.13;74.79
55347;BME280;41218;55.700;38.270;2023-02-13T18:16:19;98673.34;;;-0.17;74.72
55347;BME280;41218;55.700;38.270;2023-02-13T18:21:22;98680.69;;;-0.09;74.98
55347;BME280;41218;55.700;38.270;2023-02-13T18:26:23;98674.59;;;-0.06;74.86
55347;BME280;41218;55.700;38.270;2023-02-13T18:31:23;98661.97;;;-0.10;74.95
55347;BME280;41218;55.700;38.270;2023-02-13T18:36:24;98647.59;;;-0.11;74.92
55347;BME280;41218;55.700;38.270;2023-02-13T18:41:24;98646.31;;;-0.05;75.39
55347;BME280;41218;55.700;38.270;2023-02-13T18:46:25;98645.19;;;-0.04;75.03
55347;BME280;41218;55.700;38.270;2023-02-13T18:51:26;98624.88;;;-0.06;75.05
55347;BME280;41218;55.700;38.270;2023-02-13T18:56:26;98618.81;;;-0.03;75.41
55347;BME280;41218;55.700;38.270;2023-02-13T19:01:27;98605.38;;;0.01;75.43
55347;BME280;41218;55.700;38.270;2023-02-13T19:06:27;98602.00;;;0.04;75.40
55347;BME280;41218;55.700;38.270;2023-02-13T19:11:29;98592.75;;;0.05;75.45
55347;BME280;41218;55.700;38.270;2023-02-13T19:16:31;98582.00;;;0.08;75.36
55347;BME280;41218;55.700;38.270;2023-02-13T19:21:35;98568.06;;;0.10;75.05
55347;BME280;41218;55.700;38.270;2023-02-13T19:26:36;98557.69;;;0.12;75.50
55347;BME280;41218;55.700;38.270;2023-02-13T19:31:36;98552.72;;;0.14;75.42
55347;BME280;41218;55.700;38.270;2023-02-13T19:36:37;98531.31;;;0.12;75.77
55347;BME280;41218;55.700;38.270;2023-02-13T19:41:37;98536.53;;;0.17;75.73
55347;BME280;41218;55.700;38.270;2023-02-13T19:46:39;98530.47;;;0.21;75.47
55347;BME280;41218;55.700;38.270;2023-02-13T19:51:40;98525.50;;;0.23;75.96
55347;BME280;41218;55.700;38.270;2023-02-13T19:56:41;98523.25;;;0.25;75.75
55347;BME280;41218;55.700;38.270;2023-02-13T20:01:42;98508.84;;;0.24;75.78
55347;BME280;41218;55.700;38.270;2023-02-13T20:06:44;98510.56;;;0.29;75.63
55347;BME280;41218;55.700;38.270;2023-02-13T20:11:45;98501.75;;;0.32;75.69
55347;BME280;41218;55.700;38.270;2023-02-13T20:16:45;98506.06;;;0.33;75.92
55347;BME280;41218;55.700;38.270;2023-02-13T20:21:46;98500.75;;;0.36;75.72
55347;BME280;41218;55.700;38.270;2023-02-13T20:26:46;98486.81;;;0.38;75.81
55347;BME280;41218;55.700;38.270;2023-02-13T20:31:47;98497.84;;;0.42;75.81
55347;BME280;41218;55.700;38.270;2023-02-13T20:36:47;98480.59;;;0.37;75.53
55347;BME280;41218;55.700;38.270;2023-02-13T20:41:48;98485.94;;;0.46;75.50
55347;BME280;41218;55.700;38.270;2023-02-13T20:46:49;98488.81;;;0.50;75.62
55347;BME280;41218;55.700;38.270;2023-02-13T20:51:50;98492.44;;;0.54;75.43
55347;BME280;41218;55.700;38.270;2023-02-13T20:56:52;98486.88;;;0.50;75.62
55347;BME280;41218;55.700;38.270;2023-02-13T21:01:52;98486.53;;;0.52;75.60
55347;BME280;41218;55.700;38.270;2023-02-13T21:06:53;98486.00;;;0.58;75.61
55347;BME280;41218;55.700;38.270;2023-02-13T21:11:54;98488.06;;;0.62;75.60
55347;BME280;41218;55.700;38.270;2023-02-13T21:16:55;98489.19;;;0.60;75.35
55347;BME280;41218;55.700;38.270;2023-02-13T21:21:55;98493.63;;;0.65;75.65
55347;BME280;41218;55.700;38.270;2023-02-13T21:27:10;98494.75;;;0.64;75.65
55347;BME280;41218;55.700;38.270;2023-02-13T21:32:10;98490.91;;;0.65;75.48
55347;BME280;41218;55.700;38.270;2023-02-13T21:37:11;98496.00;;;0.67;75.72
55347;BME280;41218;55.700;38.270;2023-02-13T21:42:11;98491.69;;;0.66;75.71
55347;BME280;41218;55.700;38.270;2023-02-13T21:47:12;98497.28;;;0.69;75.88
55347;BME280;41218;55.700;38.270;2023-02-13T21:52:15;98496.00;;;0.67;75.84
55347;BME280;41218;55.700;38.270;2023-02-13T21:57:16;98506.78;;;0.63;75.81
55347;BME280;41218;55.700;38.270;2023-02-13T22:02:16;98506.63;;;0.59;75.77
55347;BME280;41218;55.700;38.270;2023-02-13T22:07:17;98507.66;;;0.55;75.74
55347;BME280;41218;55.700;38.270;2023-02-13T22:12:17;98504.31;;;0.49;75.96
55347;BME280;41218;55.700;38.270;2023-02-13T22:17:18;98490.34;;;0.38;75.91
55347;BME280;41218;55.700;38.270;2023-02-13T22:22:18;98502.13;;;0.43;75.77
55347;BME280;41218;55.700;38.270;2023-02-13T22:27:19;98489.09;;;0.36;75.88
55347;BME280;41218;55.700;38.270;2023-02-13T22:32:19;98505.72;;;0.34;75.60
55347;BME280;41218;55.700;38.270;2023-02-13T22:37:20;98501.59;;;0.28;75.94
55347;BME280;41218;55.700;38.270;2023-02-13T22:42:20;98510.63;;;0.41;76.10
55347;BME280;41218;55.700;38.270;2023-02-13T22:47:21;98515.63;;;0.39;75.56
55347;BME280;41218;55.700;38.270;2023-02-13T22:52:21;98514.69;;;0.35;75.99
55347;BME280;41218;55.700;38.270;2023-02-13T22:57:22;98518.44;;;0.43;76.27
55347;BME280;41218;55.700;38.270;2023-02-13T23:02:22;98520.69;;;0.40;76.43
55347;BME280;41218;55.700;38.270;2023-02-13T23:07:23;98536.16;;;0.49;76.08
55347;BME280;41218;55.700;38.270;2023-02-13T23:12:23;98544.56;;;0.56;75.70
55347;BME280;41218;55.700;38.270;2023-02-13T23:17:37;98540.78;;;0.48;75.91
55347;BME280;41218;55.700;38.270;2023-02-13T23:23:01;98532.38;;;0.41;76.15
55347;BME280;41218;55.700;38.270;2023-02-13T23:28:02;98532.38;;;0.41;76.16
55347;BME280;41218;55.700;38.270;2023-02-13T23:33:03;98537.59;;;0.46;76.01
55347;BME280;41218;55.700;38.270;2023-02-13T23:38:03;98545.13;;;0.49;76.10
55347;BME280;41218;55.700;38.270;2023-02-13T23:43:04;98546.13;;;0.45;76.23
55347;BME280;41218;55.700;38.270;2023-02-13T23:48:04;98554.28;;;0.45;76.10
55347;BME280;41218;55.700;38.270;2023-02-13T23:53:06;98554.47;;;0.39;76.41
55347;BME280;41218;55.700;38.270;2023-02-13T23:58:06;98564.00;;;0.46;76.29
